sensor_id;sensor_type;location;lat;lon;timestamp;temperature;humidity
37158;DHT22;23050;51.776;22.638;2023-02-12T00:02:12;1.70;99.90
37158;DHT22;23050;51.776;22.638;2023-02-12T00:04:38;1.60;99.90
37158;DHT22;23050;51.776;22.638;2023-02-12T00:07:03;1.70;99.90
37158;DHT22;23050;51.776;22.638;2023-02-12T00:09:29;1.60;99.90
37158;DHT22;23050;51.776;22.638;2023-02-12T00:11:54;1.70;99.90
37158;DHT22;23050;51.776;22.638;2023-02-12T00:14:20;1.60;99.90
37158;DHT22;23050;51.776;22.638;2023-02-12T00:16:45;1.60;99.90
37158;DHT22;23050;51.776;22.638;2023-02-12T00:19:11;1.60;99.90
37158;DHT22;23050;51.776;22.638;2023-02-12T00:21:36;1.60;99.90
37158;DHT22;23050;51.776;22.638;2023-02-12T00:24:02;1.60;99.90
37158;DHT22;23050;51.776;22.638;2023-02-12T00:26:28;1.70;99.90
37158;DHT22;23050;51.776;22.638;2023-02-12T00:28:54;1.70;99.90
37158;DHT22;23050;51.776;22.638;2023-02-12T00:31:30;1.70;99.90
37158;DHT22;23050;51.776;22.638;2023-02-12T00:33:57;1.60;99.90
37158;DHT22;23050;51.776;22.638;2023-02-12T00:36:25;1.60;99.90
37158;DHT22;23050;51.776;22.638;2023-02-12T00:38:53;1.60;99.90
37158;DHT22;23050;51.776;22.638;2023-02-12T00:41:19;1.60;99.90
37158;DHT22;23050;51.776;22.638;2023-02-12T00:43:45;1.70;99.90
37158;DHT22;23050;51.776;22.638;2023-02-12T00:46:11;1.70;99.90
37158;DHT22;23050;51.776;22.638;2023-02-12T00:48:37;1.60;99.90
37158;DHT22;23050;51.776;22.638;2023-02-12T00:51:03;1.60;99.90
37158;DHT22;23050;51.776;22.638;2023-02-12T00:53:29;1.60;99.90
37158;DHT22;23050;51.776;22.638;2023-02-12T00:55:55;1.60;99.90
37158;DHT22;23050;51.776;22.638;2023-02-12T00:58:21;1.60;99.90
37158;DHT22;23050;51.776;22.638;2023-02-12T01:00:47;1.60;99.90
37158;DHT22;23050;51.776;22.638;2023-02-12T01:03:13;1.50;99.90
37158;DHT22;23050;51.776;22.638;2023-02-12T01:05:39;1.50;99.90
37158;DHT22;23050;51.776;22.638;2023-02-12T01:08:05;1.50;99.90
37158;DHT22;23050;51.776;22.638;2023-02-12T01:10:31;1.60;99.90
37158;DHT22;23050;51.776;22.638;2023-02-12T01:12:57;1.50;99.90
37158;DHT22;23050;51.776;22.638;2023-02-12T01:15:22;1.50;99.90
37158;DHT22;23050;51.776;22.638;2023-02-12T01:17:51;1.50;99.90
37158;DHT22;23050;51.776;22.638;2023-02-12T01:20:20;1.50;99.90
37158;DHT22;23050;51.776;22.638;2023-02-12T01:22:46;1.50;99.90
37158;DHT22;23050;51.776;22.638;2023-02-12T01:25:12;1.60;99.90
37158;DHT22;23050;51.776;22.638;2023-02-12T01:27:37;1.60;99.90
37158;DHT22;23050;51.776;22.638;2023-02-12T01:30:04;1.60;99.90
37158;DHT22;23050;51.776;22.638;2023-02-12T01:32:30;1.60;99.90
37158;DHT22;23050;51.776;22.638;2023-02-12T01:34:55;1.60;99.90
37158;DHT22;23050;51.776;22.638;2023-02-12T01:37:21;1.60;99.90
37158;DHT22;23050;51.776;22.638;2023-02-12T01:39:47;1.60;99.90
37158;DHT22;23050;51.776;22.638;2023-02-12T01:42:14;1.60;99.90
37158;DHT22;23050;51.776;22.638;2023-02-12T01:47:41;1.50;99.90
37158;DHT22;23050;51.776;22.638;2023-02-12T01:50:10;1.50;99.90
37158;DHT22;23050;51.776;22.638;2023-02-12T01:52:38;1.50;99.90
37158;DHT22;23050;51.776;22.638;2023-02-12T01:55:07;1.50;99.90
37158;DHT22;23050;51.776;22.638;2023-02-12T01:57:34;1.50;99.90
37158;DHT22;23050;51.776;22.638;2023-02-12T02:00:07;1.50;99.90
37158;DHT22;23050;51.776;22.638;2023-02-12T02:02:33;1.50;99.90
37158;DHT22;23050;51.776;22.638;2023-02-12T02:05:01;1.60;99.90
37158;DHT22;23050;51.776;22.638;2023-02-12T02:07:28;1.60;99.90
37158;DHT22;23050;51.776;22.638;2023-02-12T02:09:55;1.60;99.90
37158;DHT22;23050;51.776;22.638;2023-02-12T02:12:21;1.60;99.90
37158;DHT22;23050;51.776;22.638;2023-02-12T02:15:05;1.50;99.90
37158;DHT22;23050;51.776;22.638;2023-02-12T02:17:50;1.50;99.90
37158;DHT22;23050;51.776;22.638;2023-02-12T02:20:40;1.50;99.90
37158;DHT22;23050;51.776;22.638;2023-02-12T02:29:03;1.60;99.90
37158;DHT22;23050;51.776;22.638;2023-02-12T02:31:42;1.60;99.90
37158;DHT22;23050;51.776;22.638;2023-02-12T02:37:16;1.50;99.90
37158;DHT22;23050;51.776;22.638;2023-02-12T02:39:58;1.50;99.90
37158;DHT22;23050;51.776;22.638;2023-02-12T02:42:30;1.40;99.90
37158;DHT22;23050;51.776;22.638;2023-02-12T02:45:03;1.50;99.90
37158;DHT22;23050;51.776;22.638;2023-02-12T02:47:35;1.50;99.90
37158;DHT22;23050;51.776;22.638;2023-02-12T02:50:05;1.50;99.90
37158;DHT22;23050;51.776;22.638;2023-02-12T02:52:44;1.50;99.90
37158;DHT22;23050;51.776;22.638;2023-02-12T02:55:14;1.40;99.90
37158;DHT22;23050;51.776;22.638;2023-02-12T02:57:45;1.40;99.90
37158;DHT22;23050;51.776;22.638;2023-02-12T03:00:21;1.40;99.90
37158;DHT22;23050;51.776;22.638;2023-02-12T03:02:53;1.40;99.90
37158;DHT22;23050;51.776;22.638;2023-02-12T03:05:29;1.40;99.90
37158;DHT22;23050;51.776;22.638;2023-02-12T03:08:00;1.40;99.90
37158;DHT22;23050;51.776;22.638;2023-02-12T03:10:35;1.40;99.90
37158;DHT22;23050;51.776;22.638;2023-02-12T03:13:11;1.40;99.90
37158;DHT22;23050;51.776;22.638;2023-02-12T03:15:43;1.40;99.90
37158;DHT22;23050;51.776;22.638;2023-02-12T03:18:21;1.30;99.90
37158;DHT22;23050;51.776;22.638;2023-02-12T03:20:52;1.40;99.90
37158;DHT22;23050;51.776;22.638;2023-02-12T03:23:26;1.30;99.90
37158;DHT22;23050;51.776;22.638;2023-02-12T03:26:03;1.20;99.90
37158;DHT22;23050;51.776;22.638;2023-02-12T03:28:36;1.10;99.90
37158;DHT22;23050;51.776;22.638;2023-02-12T03:31:30;1.10;99.90
37158;DHT22;23050;51.776;22.638;2023-02-12T03:34:17;1.10;99.90
37158;DHT22;23050;51.776;22.638;2023-02-12T03:36:48;1.00;99.90
37158;DHT22;23050;51.776;22.638;2023-02-12T03:42:11;0.90;99.90
37158;DHT22;23050;51.776;22.638;2023-02-12T03:45:03;0.80;99.90
37158;DHT22;23050;51.776;22.638;2023-02-12T03:50:12;0.70;99.90
37158;DHT22;23050;51.776;22.638;2023-02-12T03:52:40;0.60;99.90
37158;DHT22;23050;51.776;22.638;2023-02-12T03:55:06;0.60;99.90
37158;DHT22;23050;51.776;22.638;2023-02-12T03:57:40;0.60;99.90
37158;DHT22;23050;51.776;22.638;2023-02-12T04:00:15;0.60;99.90
37158;DHT22;23050;51.776;22.638;2023-02-12T04:02:42;0.50;99.90
37158;DHT22;23050;51.776;22.638;2023-02-12T04:05:15;0.50;99.90
37158;DHT22;23050;51.776;22.638;2023-02-12T04:07:40;0.40;99.90
37158;DHT22;23050;51.776;22.638;2023-02-12T04:10:06;0.40;99.90
37158;DHT22;23050;51.776;22.638;2023-02-12T04:12:41;0.40;99.90
37158;DHT22;23050;51.776;22.638;2023-02-12T04:18:19;0.40;99.90
37158;DHT22;23050;51.776;22.638;2023-02-12T04:21:01;0.40;99.90
37158;DHT22;23050;51.776;22.638;2023-02-12T04:23:44;0.50;99.90
37158;DHT22;23050;51.776;22.638;2023-02-12T04:31:54;0.50;99.90
37158;DHT22;23050;51.776;22.638;2023-02-12T04:39:49;0.50;99.90
37158;DHT22;23050;51.776;22.638;2023-02-12T04:42:16;0.50;99.90
37158;DHT22;23050;51.776;22.638;2023-02-12T04:44:43;0.50;99.90
37158;DHT22;23050;51.776;22.638;2023-02-12T04:47:15;0.50;99.90
37158;DHT22;23050;51.776;22.638;2023-02-12T04:49:41;0.60;99.90
37158;DHT22;23050;51.776;22.638;2023-02-12T04:52:07;0.50;99.90
37158;DHT22;23050;51.776;22.638;2023-02-12T04:54:33;0.60;99.90
37158;DHT22;23050;51.776;22.638;2023-02-12T04:57:00;0.60;99.90
37158;DHT22;23050;51.776;22.638;2023-02-12T04:59:25;0.60;99.90
37158;DHT22;23050;51.776;22.638;2023-02-12T05:01:51;0.60;99.90
37158;DHT22;23050;51.776;22.638;2023-02-12T05:04:17;0.60;99.90
37158;DHT22;23050;51.776;22.638;2023-02-12T05:06:43;0.60;99.90
37158;DHT22;23050;51.776;22.638;2023-02-12T05:09:13;0.60;99.90
37158;DHT22;23050;51.776;22.638;2023-02-12T05:11:38;0.60;99.90
37158;DHT22;23050;51.776;22.638;2023-02-12T05:14:04;0.70;99.90
37158;DHT22;23050;51.776;22.638;2023-02-12T05:16:30;0.60;99.90
37158;DHT22;23050;51.776;22.638;2023-02-12T05:18:55;0.60;99.90
37158;DHT22;23050;51.776;22.638;2023-02-12T05:21:21;0.60;99.90
37158;DHT22;23050;51.776;22.638;2023-02-12T05:23:47;0.60;99.90
37158;DHT22;23050;51.776;22.638;2023-02-12T05:26:17;0.60;99.90
37158;DHT22;23050;51.776;22.638;2023-02-12T05:28:44;0.60;99.90
37158;DHT22;23050;51.776;22.638;2023-02-12T05:31:13;0.60;99.90
37158;DHT22;23050;51.776;22.638;2023-02-12T05:33:44;0.50;99.90
37158;DHT22;23050;51.776;22.638;2023-02-12T05:36:13;0.50;99.90
37158;DHT22;23050;51.776;22.638;2023-02-12T05:38:39;0.50;99.90
37158;DHT22;23050;51.776;22.638;2023-02-12T05:41:09;0.50;99.90
37158;DHT22;23050;51.776;22.638;2023-02-12T05:43:34;0.50;99.90
37158;DHT22;23050;51.776;22.638;2023-02-12T05:46:02;0.50;99.90
37158;DHT22;23050;51.776;22.638;2023-02-12T05:48:28;0.40;99.90
37158;DHT22;23050;51.776;22.638;2023-02-12T05:50:54;0.40;99.90
37158;DHT22;23050;51.776;22.638;2023-02-12T05:53:25;0.30;99.90
37158;DHT22;23050;51.776;22.638;2023-02-12T05:55:51;0.30;99.90
37158;DHT22;23050;51.776;22.638;2023-02-12T05:58:16;0.30;99.90
37158;DHT22;23050;51.776;22.638;2023-02-12T06:00:42;0.30;99.90
37158;DHT22;23050;51.776;22.638;2023-02-12T06:03:07;0.20;99.90
37158;DHT22;23050;51.776;22.638;2023-02-12T06:05:33;0.20;99.90
37158;DHT22;23050;51.776;22.638;2023-02-12T06:07:58;0.20;99.90
37158;DHT22;23050;51.776;22.638;2023-02-12T06:10:24;0.20;99.90
37158;DHT22;23050;51.776;22.638;2023-02-12T06:12:53;0.20;99.90
37158;DHT22;23050;51.776;22.638;2023-02-12T06:15:18;0.20;99.90
37158;DHT22;23050;51.776;22.638;2023-02-12T06:17:44;0.20;99.90
37158;DHT22;23050;51.776;22.638;2023-02-12T06:20:10;0.30;99.90
37158;DHT22;23050;51.776;22.638;2023-02-12T06:22:35;0.30;99.90
37158;DHT22;23050;51.776;22.638;2023-02-12T06:25:03;0.40;99.90
37158;DHT22;23050;51.776;22.638;2023-02-12T06:27:29;0.40;99.90
37158;DHT22;23050;51.776;22.638;2023-02-12T06:29:54;0.50;99.90
37158;DHT22;23050;51.776;22.638;2023-02-12T06:32:20;0.60;99.90
37158;DHT22;23050;51.776;22.638;2023-02-12T06:34:46;0.60;99.90
37158;DHT22;23050;51.776;22.638;2023-02-12T06:37:12;0.70;99.90
37158;DHT22;23050;51.776;22.638;2023-02-12T06:39:37;0.80;99.90
37158;DHT22;23050;51.776;22.638;2023-02-12T06:42:03;0.90;99.90
37158;DHT22;23050;51.776;22.638;2023-02-12T06:44:29;1.10;99.90
37158;DHT22;23050;51.776;22.638;2023-02-12T06:46:54;1.50;99.90
37158;DHT22;23050;51.776;22.638;2023-02-12T06:49:20;2.10;99.90
37158;DHT22;23050;51.776;22.638;2023-02-12T06:51:45;2.70;94.10
37158;DHT22;23050;51.776;22.638;2023-02-12T06:54:16;3.10;78.60
37158;DHT22;23050;51.776;22.638;2023-02-12T06:56:42;3.40;57.30
37158;DHT22;23050;51.776;22.638;2023-02-12T06:59:12;3.70;47.90
37158;DHT22;23050;51.776;22.638;2023-02-12T07:01:38;4.00;34.40
37158;DHT22;23050;51.776;22.638;2023-02-12T07:04:04;4.30;21.00
37158;DHT22;23050;51.776;22.638;2023-02-12T07:06:32;4.40;11.60
37158;DHT22;23050;51.776;22.638;2023-02-12T07:08:58;4.70;9.30
37158;DHT22;23050;51.776;22.638;2023-02-12T07:11:25;5.10;1.00
37158;DHT22;23050;51.776;22.638;2023-02-12T07:13:50;5.50;1.00
37158;DHT22;23050;51.776;22.638;2023-02-12T07:16:16;6.00;1.00
37158;DHT22;23050;51.776;22.638;2023-02-12T07:18:44;6.70;1.00
37158;DHT22;23050;51.776;22.638;2023-02-12T07:21:12;7.20;1.00
37158;DHT22;23050;51.776;22.638;2023-02-12T07:23:38;7.80;1.00
37158;DHT22;23050;51.776;22.638;2023-02-12T07:26:06;8.00;1.00
37158;DHT22;23050;51.776;22.638;2023-02-12T07:28:33;8.00;1.00
37158;DHT22;23050;51.776;22.638;2023-02-12T07:31:09;7.80;1.00
37158;DHT22;23050;51.776;22.638;2023-02-12T07:33:35;8.30;1.00
37158;DHT22;23050;51.776;22.638;2023-02-12T07:36:02;9.20;1.00
37158;DHT22;23050;51.776;22.638;2023-02-12T07:38:28;9.60;1.00
37158;DHT22;23050;51.776;22.638;2023-02-12T07:40:54;9.90;1.00
37158;DHT22;23050;51.776;22.638;2023-02-12T07:43:23;10.00;1.00
37158;DHT22;23050;51.776;22.638;2023-02-12T07:45:48;10.40;1.00
37158;DHT22;23050;51.776;22.638;2023-02-12T07:48:14;11.20;1.00
37158;DHT22;23050;51.776;22.638;2023-02-12T07:50:39;11.70;1.00
37158;DHT22;23050;51.776;22.638;2023-02-12T07:53:05;11.50;1.00
37158;DHT22;23050;51.776;22.638;2023-02-12T07:55:30;10.90;1.00
37158;DHT22;23050;51.776;22.638;2023-02-12T07:57:56;11.60;1.00
37158;DHT22;23050;51.776;22.638;2023-02-12T08:00:21;10.90;1.00
37158;DHT22;23050;51.776;22.638;2023-02-12T08:02:51;11.20;1.00
37158;DHT22;23050;51.776;22.638;2023-02-12T08:05:17;11.60;1.00
37158;DHT22;23050;51.776;22.638;2023-02-12T08:07:43;11.70;1.00
37158;DHT22;23050;51.776;22.638;2023-02-12T08:10:09;11.70;1.00
37158;DHT22;23050;51.776;22.638;2023-02-12T08:12:34;12.20;1.00
37158;DHT22;23050;51.776;22.638;2023-02-12T08:15:00;12.20;1.00
37158;DHT22;23050;51.776;22.638;2023-02-12T08:17:25;12.80;1.00
37158;DHT22;23050;51.776;22.638;2023-02-12T08:19:51;13.80;1.00
37158;DHT22;23050;51.776;22.638;2023-02-12T08:22:17;13.40;1.00
37158;DHT22;23050;51.776;22.638;2023-02-12T08:24:43;14.30;1.00
37158;DHT22;23050;51.776;22.638;2023-02-12T08:27:08;14.60;1.00
37158;DHT22;23050;51.776;22.638;2023-02-12T08:29:34;14.90;1.00
37158;DHT22;23050;51.776;22.638;2023-02-12T08:32:02;15.10;1.00
37158;DHT22;23050;51.776;22.638;2023-02-12T08:34:30;14.30;1.00
37158;DHT22;23050;51.776;22.638;2023-02-12T08:36:56;11.90;1.00
37158;DHT22;23050;51.776;22.638;2023-02-12T08:39:24;10.30;1.00
37158;DHT22;23050;51.776;22.638;2023-02-12T08:41:52;10.30;1.00
37158;DHT22;23050;51.776;22.638;2023-02-12T08:44:18;10.60;1.00
37158;DHT22;23050;51.776;22.638;2023-02-12T08:46:48;10.40;1.00
37158;DHT22;23050;51.776;22.638;2023-02-12T08:49:17;9.30;1.00
37158;DHT22;23050;51.776;22.638;2023-02-12T08:51:45;8.50;1.00
37158;DHT22;23050;51.776;22.638;2023-02-12T08:54:15;8.90;1.00
37158;DHT22;23050;51.776;22.638;2023-02-12T08:56:41;10.10;1.00
37158;DHT22;23050;51.776;22.638;2023-02-12T08:59:07;11.90;1.00
37158;DHT22;23050;51.776;22.638;2023-02-12T09:01:35;12.90;1.00
37158;DHT22;23050;51.776;22.638;2023-02-12T09:04:06;14.00;1.00
37158;DHT22;23050;51.776;22.638;2023-02-12T09:06:33;13.40;1.00
37158;DHT22;23050;51.776;22.638;2023-02-12T09:08:59;13.80;1.00
37158;DHT22;23050;51.776;22.638;2023-02-12T09:11:27;13.90;1.00
37158;DHT22;23050;51.776;22.638;2023-02-12T09:13:57;14.60;1.00
37158;DHT22;23050;51.776;22.638;2023-02-12T09:16:24;14.70;1.00
37158;DHT22;23050;51.776;22.638;2023-02-12T09:18:50;14.30;1.00
37158;DHT22;23050;51.776;22.638;2023-02-12T09:21:16;13.30;1.00
37158;DHT22;23050;51.776;22.638;2023-02-12T09:23:43;13.70;1.00
37158;DHT22;23050;51.776;22.638;2023-02-12T09:26:15;14.90;1.00
37158;DHT22;23050;51.776;22.638;2023-02-12T09:28:41;15.80;1.00
37158;DHT22;23050;51.776;22.638;2023-02-12T09:31:09;15.50;1.00
37158;DHT22;23050;51.776;22.638;2023-02-12T09:33:35;15.60;1.00
37158;DHT22;23050;51.776;22.638;2023-02-12T09:36:02;14.20;1.00
37158;DHT22;23050;51.776;22.638;2023-02-12T09:38:28;14.70;1.00
37158;DHT22;23050;51.776;22.638;2023-02-12T09:46:34;11.50;1.00
37158;DHT22;23050;51.776;22.638;2023-02-12T09:51:42;11.20;1.00
37158;DHT22;23050;51.776;22.638;2023-02-12T09:54:14;11.10;1.00
37158;DHT22;23050;51.776;22.638;2023-02-12T09:56:43;12.00;1.00
37158;DHT22;23050;51.776;22.638;2023-02-12T09:59:35;11.50;1.00
37158;DHT22;23050;51.776;22.638;2023-02-12T10:01:59;11.10;1.00
37158;DHT22;23050;51.776;22.638;2023-02-12T10:04:26;11.70;1.00
37158;DHT22;23050;51.776;22.638;2023-02-12T10:07:04;12.20;1.00
37158;DHT22;23050;51.776;22.638;2023-02-12T10:21:04;14.10;1.00
37158;DHT22;23050;51.776;22.638;2023-02-12T10:24:25;14.30;1.00
37158;DHT22;23050;51.776;22.638;2023-02-12T10:26:30;14.10;1.00
37158;DHT22;23050;51.776;22.638;2023-02-12T10:29:12;13.20;1.00
37158;DHT22;23050;51.776;22.638;2023-02-12T10:31:42;12.50;1.00
37158;DHT22;23050;51.776;22.638;2023-02-12T10:34:33;11.60;1.00
37158;DHT22;23050;51.776;22.638;2023-02-12T10:37:27;11.40;1.00
37158;DHT22;23050;51.776;22.638;2023-02-12T10:39:57;10.30;1.00
37158;DHT22;23050;51.776;22.638;2023-02-12T10:42:37;10.30;1.00
37158;DHT22;23050;51.776;22.638;2023-02-12T10:45:04;10.90;1.00
37158;DHT22;23050;51.776;22.638;2023-02-12T10:47:30;10.70;1.00
37158;DHT22;23050;51.776;22.638;2023-02-12T10:50:00;10.70;1.00
37158;DHT22;23050;51.776;22.638;2023-02-12T10:52:46;10.70;1.00
37158;DHT22;23050;51.776;22.638;2023-02-12T10:57:51;10.50;1.00
37158;DHT22;23050;51.776;22.638;2023-02-12T11:00:34;10.80;1.00
37158;DHT22;23050;51.776;22.638;2023-02-12T11:03:17;10.40;1.00
37158;DHT22;23050;51.776;22.638;2023-02-12T11:05:44;10.60;1.00
37158;DHT22;23050;51.776;22.638;2023-02-12T11:08:36;10.70;1.00
37158;DHT22;23050;51.776;22.638;2023-02-12T11:11:14;10.70;1.00
37158;DHT22;23050;51.776;22.638;2023-02-12T11:13:44;10.50;1.00
37158;DHT22;23050;51.776;22.638;2023-02-12T11:16:10;9.80;1.00
37158;DHT22;23050;51.776;22.638;2023-02-12T11:18:37;10.00;1.00
37158;DHT22;23050;51.776;22.638;2023-02-12T11:21:10;10.20;1.00
37158;DHT22;23050;51.776;22.638;2023-02-12T11:23:38;9.80;1.00
37158;DHT22;23050;51.776;22.638;2023-02-12T11:26:06;9.50;1.00
37158;DHT22;23050;51.776;22.638;2023-02-12T11:29:00;9.90;1.00
37158;DHT22;23050;51.776;22.638;2023-02-12T11:31:29;9.80;1.00
37158;DHT22;23050;51.776;22.638;2023-02-12T11:34:15;9.50;1.00
37158;DHT22;23050;51.776;22.638;2023-02-12T11:36:45;8.50;1.00
37158;DHT22;23050;51.776;22.638;2023-02-12T11:41:50;8.90;1.00
37158;DHT22;23050;51.776;22.638;2023-02-12T11:44:26;8.80;1.00
37158;DHT22;23050;51.776;22.638;2023-02-12T11:46:59;9.40;1.00
37158;DHT22;23050;51.776;22.638;2023-02-12T11:49:32;9.40;1.00
37158;DHT22;23050;51.776;22.638;2023-02-12T11:52:01;9.50;1.00
37158;DHT22;23050;51.776;22.638;2023-02-12T11:55:03;9.20;1.00
37158;DHT22;23050;51.776;22.638;2023-02-12T11:57:54;9.50;1.00
37158;DHT22;23050;51.776;22.638;2023-02-12T12:00:38;8.90;1.00
37158;DHT22;23050;51.776;22.638;2023-02-12T12:03:15;9.00;1.00
37158;DHT22;23050;51.776;22.638;2023-02-12T12:05:48;9.30;1.00
37158;DHT22;23050;51.776;22.638;2023-02-12T12:08:26;8.00;1.00
37158;DHT22;23050;51.776;22.638;2023-02-12T12:10:57;7.60;1.00
37158;DHT22;23050;51.776;22.638;2023-02-12T12:13:31;7.00;1.00
37158;DHT22;23050;51.776;22.638;2023-02-12T12:16:26;7.00;1.00
37158;DHT22;23050;51.776;22.638;2023-02-12T12:19:20;7.60;1.00
37158;DHT22;23050;51.776;22.638;2023-02-12T12:22:49;7.80;1.00
37158;DHT22;23050;51.776;22.638;2023-02-12T12:25:29;7.60;1.00
37158;DHT22;23050;51.776;22.638;2023-02-12T12:28:09;7.10;1.00
37158;DHT22;23050;51.776;22.638;2023-02-12T12:43:57;7.50;1.00
37158;DHT22;23050;51.776;22.638;2023-02-12T12:46:38;7.40;1.00
37158;DHT22;23050;51.776;22.638;2023-02-12T13:06:11;7.30;1.00
37158;DHT22;23050;51.776;22.638;2023-02-12T13:09:02;7.10;1.00
37158;DHT22;23050;51.776;22.638;2023-02-12T13:17:25;7.50;1.00
37158;DHT22;23050;51.776;22.638;2023-02-12T13:22:49;7.30;1.00
37158;DHT22;23050;51.776;22.638;2023-02-12T13:28:29;6.80;1.00
37158;DHT22;23050;51.776;22.638;2023-02-12T13:30:56;6.40;1.00
37158;DHT22;23050;51.776;22.638;2023-02-12T13:33:32;6.40;1.00
37158;DHT22;23050;51.776;22.638;2023-02-12T13:36:05;6.70;1.00
37158;DHT22;23050;51.776;22.638;2023-02-12T13:38:35;7.30;1.00
37158;DHT22;23050;51.776;22.638;2023-02-12T13:41:07;7.30;1.00
37158;DHT22;23050;51.776;22.638;2023-02-12T13:43:59;6.80;1.00
37158;DHT22;23050;51.776;22.638;2023-02-12T13:52:00;6.30;1.00
37158;DHT22;23050;51.776;22.638;2023-02-12T13:57:20;6.90;1.00
37158;DHT22;23050;51.776;22.638;2023-02-12T13:59:49;6.40;1.00
37158;DHT22;23050;51.776;22.638;2023-02-12T14:05:00;5.60;1.00
37158;DHT22;23050;51.776;22.638;2023-02-12T14:07:51;5.60;1.00
37158;DHT22;23050;51.776;22.638;2023-02-12T14:12:50;5.90;1.00
37158;DHT22;23050;51.776;22.638;2023-02-12T14:17:53;6.00;1.00
37158;DHT22;23050;51.776;22.638;2023-02-12T14:20:23;5.90;1.00
37158;DHT22;23050;51.776;22.638;2023-02-12T14:27:51;6.00;1.00
37158;DHT22;23050;51.776;22.638;2023-02-12T14:32:58;6.10;1.00
37158;DHT22;23050;51.776;22.638;2023-02-12T14:35:29;5.90;1.00
37158;DHT22;23050;51.776;22.638;2023-02-12T14:38:00;5.70;1.00
37158;DHT22;23050;51.776;22.638;2023-02-12T14:43:32;5.80;1.00
37158;DHT22;23050;51.776;22.638;2023-02-12T14:48:50;5.80;1.00
37158;DHT22;23050;51.776;22.638;2023-02-12T14:56:55;4.80;1.00
37158;DHT22;23050;51.776;22.638;2023-02-12T14:59:25;4.50;1.00
37158;DHT22;23050;51.776;22.638;2023-02-12T15:01:51;4.30;1.00
37158;DHT22;23050;51.776;22.638;2023-02-12T15:04:26;4.10;1.00
37158;DHT22;23050;51.776;22.638;2023-02-12T15:07:07;3.90;1.00
37158;DHT22;23050;51.776;22.638;2023-02-12T15:09:49;3.70;1.00
37158;DHT22;23050;51.776;22.638;2023-02-12T15:12:23;3.50;1.00
37158;DHT22;23050;51.776;22.638;2023-02-12T15:15:22;3.50;1.00
37158;DHT22;23050;51.776;22.638;2023-02-12T15:18:11;3.30;1.00
37158;DHT22;23050;51.776;22.638;2023-02-12T15:20:53;3.20;1.00
37158;DHT22;23050;51.776;22.638;2023-02-12T15:23:42;3.00;6.90
37158;DHT22;23050;51.776;22.638;2023-02-12T15:26:17;2.90;18.20
37158;DHT22;23050;51.776;22.638;2023-02-12T15:28:46;2.80;28.60
37158;DHT22;23050;51.776;22.638;2023-02-12T15:31:19;2.70;33.80
37158;DHT22;23050;51.776;22.638;2023-02-12T15:33:48;2.60;42.20
37158;DHT22;23050;51.776;22.638;2023-02-12T15:36:21;2.50;49.10
37158;DHT22;23050;51.776;22.638;2023-02-12T15:38:51;2.40;53.90
37158;DHT22;23050;51.776;22.638;2023-02-12T15:41:43;2.30;56.50
37158;DHT22;23050;51.776;22.638;2023-02-12T15:44:27;2.20;62.80
37158;DHT22;23050;51.776;22.638;2023-02-12T15:47:19;2.00;65.50
37158;DHT22;23050;51.776;22.638;2023-02-12T15:49:49;2.00;68.00
37158;DHT22;23050;51.776;22.638;2023-02-12T15:52:23;1.90;72.80
37158;DHT22;23050;51.776;22.638;2023-02-12T15:54:59;1.80;79.10
37158;DHT22;23050;51.776;22.638;2023-02-12T15:57:25;1.70;82.20
37158;DHT22;23050;51.776;22.638;2023-02-12T15:59:53;1.60;84.10
37158;DHT22;23050;51.776;22.638;2023-02-12T16:02:24;1.60;85.90
37158;DHT22;23050;51.776;22.638;2023-02-12T16:04:51;1.50;90.10
37158;DHT22;23050;51.776;22.638;2023-02-12T16:07:18;1.40;91.10
37158;DHT22;23050;51.776;22.638;2023-02-12T16:09:44;1.30;92.50
37158;DHT22;23050;51.776;22.638;2023-02-12T16:12:16;1.30;94.00
37158;DHT22;23050;51.776;22.638;2023-02-12T16:14:47;1.10;95.40
37158;DHT22;23050;51.776;22.638;2023-02-12T16:17:34;1.10;96.80
37158;DHT22;23050;51.776;22.638;2023-02-12T16:20:05;1.10;97.80
37158;DHT22;23050;51.776;22.638;2023-02-12T16:22:41;1.00;98.50
37158;DHT22;23050;51.776;22.638;2023-02-12T16:25:31;0.90;99.60
37158;DHT22;23050;51.776;22.638;2023-02-12T16:28:03;0.90;99.90
37158;DHT22;23050;51.776;22.638;2023-02-12T16:30:31;0.80;99.90
37158;DHT22;23050;51.776;22.638;2023-02-12T16:32:58;0.70;99.90
37158;DHT22;23050;51.776;22.638;2023-02-12T16:35:32;0.60;99.90
37158;DHT22;23050;51.776;22.638;2023-02-12T16:43:42;0.40;99.90
37158;DHT22;23050;51.776;22.638;2023-02-12T16:46:08;0.30;99.90
37158;DHT22;23050;51.776;22.638;2023-02-12T16:48:50;0.20;99.90
37158;DHT22;23050;51.776;22.638;2023-02-12T16:51:26;0.20;99.90
37158;DHT22;23050;51.776;22.638;2023-02-12T16:53:54;0.10;99.90
37158;DHT22;23050;51.776;22.638;2023-02-12T16:56:23;0.20;99.90
37158;DHT22;23050;51.776;22.638;2023-02-12T16:58:51;0.20;99.90
37158;DHT22;23050;51.776;22.638;2023-02-12T17:01:26;0.10;99.90
37158;DHT22;23050;51.776;22.638;2023-02-12T17:03:52;0.10;99.90
37158;DHT22;23050;51.776;22.638;2023-02-12T17:06:20;0.20;99.90
37158;DHT22;23050;51.776;22.638;2023-02-12T17:08:46;0.20;99.90
37158;DHT22;23050;51.776;22.638;2023-02-12T17:11:11;0.20;99.90
37158;DHT22;23050;51.776;22.638;2023-02-12T17:13:39;0.20;99.90
37158;DHT22;23050;51.776;22.638;2023-02-12T17:16:05;0.20;99.90
37158;DHT22;23050;51.776;22.638;2023-02-12T17:18:31;0.10;99.90
37158;DHT22;23050;51.776;22.638;2023-02-12T17:21:02;0.10;99.90
37158;DHT22;23050;51.776;22.638;2023-02-12T17:23:29;0.10;99.90
37158;DHT22;23050;51.776;22.638;2023-02-12T17:25:55;0.10;99.90
37158;DHT22;23050;51.776;22.638;2023-02-12T17:28:20;0.00;99.90
37158;DHT22;23050;51.776;22.638;2023-02-12T17:30:47;0.00;99.90
37158;DHT22;23050;51.776;22.638;2023-02-12T17:33:13;0.00;99.90
37158;DHT22;23050;51.776;22.638;2023-02-12T17:35:39;0.00;99.90
37158;DHT22;23050;51.776;22.638;2023-02-12T17:38:05;0.00;99.90
37158;DHT22;23050;51.776;22.638;2023-02-12T17:40:33;0.00;99.90
37158;DHT22;23050;51.776;22.638;2023-02-12T17:42:58;-0.10;99.90
37158;DHT22;23050;51.776;22.638;2023-02-12T17:45:24;-0.10;99.90
37158;DHT22;23050;51.776;22.638;2023-02-12T17:47:49;-0.10;99.90
37158;DHT22;23050;51.776;22.638;2023-02-12T17:50:15;-0.10;99.90
37158;DHT22;23050;51.776;22.638;2023-02-12T17:52:41;-0.20;99.90
37158;DHT22;23050;51.776;22.638;2023-02-12T17:55:08;-0.20;99.90
37158;DHT22;23050;51.776;22.638;2023-02-12T17:57:35;-0.20;99.90
37158;DHT22;23050;51.776;22.638;2023-02-12T18:00:01;-0.20;99.90
37158;DHT22;23050;51.776;22.638;2023-02-12T18:02:26;-0.20;99.90
37158;DHT22;23050;51.776;22.638;2023-02-12T18:04:52;-0.20;99.90
37158;DHT22;23050;51.776;22.638;2023-02-12T18:07:17;-0.20;99.90
37158;DHT22;23050;51.776;22.638;2023-02-12T18:09:43;-0.30;99.90
37158;DHT22;23050;51.776;22.638;2023-02-12T18:12:09;-0.30;99.90
37158;DHT22;23050;51.776;22.638;2023-02-12T18:14:34;-0.30;99.90